Strona główna
METAR-TAF:

METAR-TAF

Lotnisko :

Port lotniczy Teheran-Mehrabad

Teheran, Iran

Szerokość geograficzna: 35-41N, Długość geograficzna: 051-21E, wysokość: 1204 m

Aktualna obserwacja pogody

Raport powstał 34 minut temu, godzina 10:00 UTC
Wiatr 6 kt od południowo-południowy zachód
Temperatura 9°C
Wilgotność 31%
Ciśnienie 1022 hPa
Widzialność: 6000 m
Mało chmury na wysokości 4000 ft

METAR: OIII 241000Z 20006KT 6000 FEW040 09/M07 Q1022 A3019

czas: 14:04 (10:34 UTC)

Prognoza

Raport powstał 5 godziny i 4 minut temu, godzina 05:30 UTC
Prognoza ważna od 24 godzina 06 UTC do 25 godzina 12 UTC
Wiatr 4 kt od północny zachód
Widzialność: 7000 m
Mało chmury na wysokości 10000 ft
Stopniowe zmiany
od 25 godzina 08 UTC do 25 godzina 10 UTC
Mało chmury na wysokości 4500 ft
Przerywane chmury na wysokości 10000 ft

TAF: OIII 240530Z 2406/2512 31004KT 7000 FEW100 BECMG 2508/2510 FEW045 BKN100

Obserwacja i prognoza pogody dla ponad 4000 lotnisk (raport METAR i TAF).

Dostępne stacje oznaczono żółtymi i czerwonymi punktami na mapie.

Najedź kursorem aby zobaczyć nazwę stacji.

Kliknij aby zobaczyć obserwacje i prognozy pogody.

Aby zmienić mapę: kliknij na zielony przycisk z czarnym krzyżykiem, aby powiększyć; na zielony przycisk z myślnikiem, aby pomniejszyć; na zielone strzałki, aby przejść do map sąsiednich.


METAR-TAF: